Woodville, Wisconsin
Current Conditions -  °F | °C
As of 8:35 PM on Friday 28 Nov 2014 (Local Time) from KRNH Reporting Station
Broken Clouds Broken Clouds  
Wind Chill: 13°   Ceiling: 10000
Heat Index: 19°   Visibility: 10mi
Dew Point: 15°   Wind: 5mph
Humidity: 83%   Direction: 90°E
Pressure: 29.82"   Gusts: NA
Location:  44.95°N, 92.29°W
Report Text: KRNH 290235Z AUTO 09004KT 10SM SCT018 SCT080 BKN100 M07/M09 A2982 RMK AO2 T10701094
Loading
Personal Weather Stations






























Interactive Weather Map New forecast layout! Learn more

10-Day Weather Forecast

Advertisements
Track Severe Weather on mobile